createdAt,value
2022-10-04T00:01:48.043Z,100233.44
2022-10-04T00:04:23.624Z,100228.88
2022-10-04T00:06:55.612Z,100219.94
2022-10-04T00:09:26.325Z,100203.47
2022-10-04T00:11:57.584Z,100213.97
2022-10-04T00:14:32.564Z,100215.53
2022-10-04T00:17:10.524Z,100213.03
2022-10-04T00:19:45.345Z,100212.31
2022-10-04T00:22:22.674Z,100207.03
2022-10-04T00:25:21.404Z,100190.56
2022-10-04T00:28:26.284Z,100192.25
2022-10-04T00:31:15.579Z,100182.34
2022-10-04T00:33:45.789Z,100181.53
2022-10-04T00:36:52.750Z,100166.09
2022-10-04T00:39:28.484Z,100165.03
2022-10-04T00:42:08.224Z,100169.69
2022-10-04T00:44:44.114Z,100159.19
2022-10-04T00:47:25.299Z,100159.06
2022-10-04T00:49:59.714Z,100165.28
2022-10-04T00:52:34.535Z,100153.09
2022-10-04T00:55:07.776Z,100163.38
2022-10-04T00:57:41.904Z,100161.69
2022-10-04T01:00:16.023Z,100162.53
2022-10-04T01:02:54.203Z,100175.53
2022-10-04T01:05:28.084Z,100171.00
2022-10-04T01:08:04.905Z,100165.03
2022-10-04T01:10:38.667Z,100166.00
2022-10-04T01:13:11.304Z,100152.88
2022-10-04T01:15:46.406Z,100141.78
2022-10-04T01:18:17.295Z,100146.16
2022-10-04T01:20:56.014Z,100142.59
2022-10-04T01:23:43.815Z,100136.38
2022-10-04T01:26:41.274Z,100135.31
2022-10-04T01:29:13.833Z,100135.91
2022-10-04T01:31:46.381Z,100111.91
2022-10-04T01:34:17.454Z,100107.50
2022-10-04T01:36:47.503Z,100095.94
2022-10-04T01:39:20.464Z,100090.91
2022-10-04T01:41:53.313Z,100098.78
2022-10-04T01:44:31.816Z,100090.31
2022-10-04T01:47:04.664Z,100089.34
2022-10-04T01:49:36.043Z,100086.72
2022-10-04T01:52:10.143Z,100079.59
2022-10-04T01:54:45.244Z,100079.34
2022-10-04T01:57:18.534Z,100072.53
2022-10-04T01:59:54.637Z,100065.72
2022-10-04T02:02:34.625Z,100054.97
2022-10-04T02:05:07.422Z,100057.03
2022-10-04T02:07:39.104Z,100041.13
2022-10-04T02:10:17.264Z,100038.63
2022-10-04T02:12:49.225Z,100028.97
2022-10-04T02:15:20.687Z,100024.53
2022-10-04T02:17:50.814Z,100001.28
2022-10-04T02:20:23.224Z,99990.66
2022-10-04T02:22:57.304Z,99991.50
2022-10-04T02:25:27.936Z,99986.00
2022-10-04T02:27:57.182Z,99980.06
2022-10-04T02:30:26.523Z,99979.31
2022-10-04T02:33:00.049Z,99988.03
2022-10-04T02:35:32.034Z,99984.56
2022-10-04T02:38:09.685Z,99969.56
2022-10-04T02:40:46.824Z,99976.34
2022-10-04T02:43:22.674Z,99964.88
2022-10-04T02:45:56.276Z,99970.47
2022-10-04T02:48:33.734Z,99973.47
2022-10-04T02:51:13.583Z,99964.28
2022-10-04T02:53:52.325Z,99956.41
2022-10-04T02:56:25.208Z,99952.97
2022-10-04T02:58:54.824Z,99951.03
2022-10-04T03:01:29.065Z,99957.84
2022-10-04T03:03:58.864Z,99940.66
2022-10-04T03:06:33.858Z,99920.34
2022-10-04T03:09:06.593Z,99919.78
2022-10-04T03:11:40.794Z,99931.00
2022-10-04T03:14:16.284Z,99928.38
2022-10-04T03:16:46.984Z,99917.28
2022-10-04T03:19:18.264Z,99913.69
2022-10-04T03:21:51.286Z,99912.88
2022-10-04T03:24:28.994Z,99906.66
2022-10-04T03:27:02.035Z,99916.22
2022-10-04T03:29:34.315Z,99905.97
2022-10-04T03:32:05.963Z,99898.06
2022-10-04T03:34:38.150Z,99892.00
2022-10-04T03:37:11.354Z,99889.38
2022-10-04T03:39:43.526Z,99877.75
2022-10-04T03:42:17.196Z,99859.88
2022-10-04T03:44:47.514Z,99863.22
2022-10-04T03:47:22.924Z,99869.56
2022-10-04T03:49:52.554Z,99860.03
2022-10-04T03:52:25.123Z,99864.31
2022-10-04T03:54:56.224Z,99857.97
2022-10-04T03:57:27.427Z,99866.00
2022-10-04T03:59:58.305Z,99875.13
2022-10-04T04:02:35.755Z,99864.63
2022-10-04T04:05:11.455Z,99856.19
2022-10-04T04:07:44.854Z,99852.63
2022-10-04T04:10:23.197Z,99859.53
2022-10-04T04:12:58.014Z,99849.84
2022-10-04T04:15:31.449Z,99855.94
2022-10-04T04:18:04.005Z,99850.00
2022-10-04T04:20:35.454Z,99854.97
2022-10-04T04:23:12.940Z,99847.38
2022-10-04T04:25:43.474Z,99850.00
2022-10-04T04:28:26.587Z,99843.06
2022-10-04T04:30:59.363Z,99846.50
2022-10-04T04:33:37.415Z,99840.69
2022-10-04T04:36:08.475Z,99840.69
2022-10-04T04:38:57.094Z,99839.84
2022-10-04T04:41:28.884Z,99829.34
2022-10-04T04:43:59.394Z,99828.53
2022-10-04T04:46:30.643Z,99818.28
2022-10-04T04:49:04.185Z,99821.88
2022-10-04T04:51:34.656Z,99826.25
2022-10-04T04:54:05.716Z,99810.91
2022-10-04T04:56:35.084Z,99809.09
2022-10-04T04:59:09.004Z,99826.41
2022-10-04T05:01:43.793Z,99812.94
2022-10-04T05:04:20.220Z,99800.19
2022-10-04T05:06:50.664Z,99809.03
2022-10-04T05:09:26.726Z,99805.44
2022-10-04T05:11:59.344Z,99792.56
2022-10-04T05:14:32.003Z,99798.06
2022-10-04T05:17:00.794Z,99802.22
2022-10-04T05:19:32.807Z,99800.69
2022-10-04T05:22:04.246Z,99799.59
2022-10-04T05:24:35.155Z,99796.88
2022-10-04T05:27:07.027Z,99802.38
2022-10-04T05:29:40.004Z,99797.13
2022-10-04T05:32:23.304Z,99808.06
2022-10-04T05:34:53.284Z,99803.78
2022-10-04T05:37:35.954Z,99806.16
2022-10-04T05:40:18.204Z,99792.44
2022-10-04T05:42:48.284Z,99798.66
2022-10-04T05:45:23.513Z,99791.63
2022-10-04T05:47:53.893Z,99787.56
2022-10-04T05:50:30.744Z,99772.78
2022-10-04T05:53:17.984Z,99773.50
2022-10-04T05:55:58.595Z,99773.75
2022-10-04T05:58:41.344Z,99769.34
2022-10-04T06:01:32.396Z,99779.00
2022-10-04T06:04:26.629Z,99775.56
2022-10-04T06:07:00.840Z,99778.25
2022-10-04T06:09:49.013Z,99799.25
2022-10-04T06:12:30.506Z,99798.66
2022-10-04T06:15:12.944Z,99782.34
2022-10-04T06:17:56.934Z,99780.69
2022-10-04T06:20:49.224Z,99777.81
2022-10-04T06:23:19.265Z,99769.56
2022-10-04T06:25:52.904Z,99769.47
2022-10-04T06:28:26.084Z,99761.59
2022-10-04T06:31:21.156Z,99783.41
2022-10-04T06:34:08.854Z,99757.31
2022-10-04T06:37:05.914Z,99765.19
2022-10-04T06:40:11.322Z,99746.09
2022-10-04T06:43:06.775Z,99758.66
2022-10-04T06:45:50.999Z,99761.13
2022-10-04T06:48:47.364Z,99772.19
2022-10-04T06:51:33.819Z,99762.09
2022-10-04T06:54:16.115Z,99767.34
2022-10-04T06:57:04.465Z,99765.94
2022-10-04T06:59:50.042Z,99785.13
2022-10-04T07:02:23.699Z,99794.66
2022-10-04T07:05:14.525Z,99784.25
2022-10-04T07:07:49.394Z,99786.66
2022-10-04T07:10:42.444Z,99777.94
2022-10-04T07:13:26.145Z,99769.13
2022-10-04T07:16:02.205Z,99772.34
2022-10-04T07:18:35.815Z,99763.75
2022-10-04T07:21:08.674Z,99766.88
2022-10-04T07:23:46.774Z,99776.28
2022-10-04T07:26:26.514Z,99774.75
2022-10-04T07:29:25.423Z,99762.00
2022-10-04T07:32:07.310Z,99767.13
2022-10-04T07:34:41.474Z,99770.06
2022-10-04T07:37:13.066Z,99773.91
2022-10-04T07:39:50.726Z,99772.59
2022-10-04T07:42:27.294Z,99775.47
2022-10-04T07:45:12.464Z,99786.91
2022-10-04T07:47:41.724Z,99784.28
2022-10-04T07:50:28.304Z,99781.78
2022-10-04T07:53:07.140Z,99776.53
2022-10-04T07:55:52.058Z,99778.91
2022-10-04T07:58:35.116Z,99782.50
2022-10-04T08:01:09.194Z,99769.13
2022-10-04T08:03:58.563Z,99764.97
2022-10-04T08:06:36.285Z,99779.63
2022-10-04T08:09:21.164Z,99786.44
2022-10-04T08:12:02.056Z,99788.31
2022-10-04T08:14:41.795Z,99789.97
2022-10-04T08:17:23.294Z,99793.31
2022-10-04T08:20:03.336Z,99787.25
2022-10-04T08:22:55.027Z,99794.75
2022-10-04T08:25:29.523Z,99793.56
2022-10-04T08:28:23.153Z,99802.69
2022-10-04T08:31:06.757Z,99792.19
2022-10-04T08:33:53.310Z,99796.63
2022-10-04T08:36:36.024Z,99831.22
2022-10-04T08:39:11.434Z,99854.47
2022-10-04T08:42:11.547Z,99876.28
2022-10-04T08:45:17.145Z,99877.50
2022-10-04T08:48:22.804Z,99877.00
2022-10-04T08:51:37.829Z,99879.63
2022-10-04T08:54:50.864Z,99870.09
2022-10-04T08:58:01.857Z,99865.69
2022-10-04T09:00:47.604Z,99871.75
2022-10-04T09:03:47.154Z,99886.44
2022-10-04T09:06:36.604Z,99892.50
2022-10-04T09:09:44.834Z,99886.28
2022-10-04T09:12:41.300Z,99861.00
2022-10-04T09:15:19.044Z,99854.09
2022-10-04T09:18:04.515Z,99863.88
2022-10-04T09:20:49.535Z,99874.28
2022-10-04T09:24:04.554Z,99854.34
2022-10-04T09:26:45.529Z,99866.50
2022-10-04T09:29:39.986Z,99879.53
2022-10-04T09:32:32.315Z,99879.63
2022-10-04T09:35:25.994Z,99889.16
2022-10-04T09:38:21.045Z,99893.34
2022-10-04T09:41:27.440Z,99877.97
2022-10-04T09:44:24.701Z,99872.97
2022-10-04T09:47:41.348Z,99865.09
2022-10-04T09:50:42.474Z,99875.34
2022-10-04T09:53:26.630Z,99874.06
2022-10-04T09:56:11.649Z,99875.59
2022-10-04T09:58:59.709Z,99867.97
2022-10-04T10:01:37.819Z,99897.53
2022-10-04T10:04:21.389Z,99911.13
2022-10-04T10:07:17.680Z,99913.75
2022-10-04T10:10:11.309Z,99903.50
2022-10-04T10:13:28.762Z,99911.25
2022-10-04T10:16:13.487Z,99899.91
2022-10-04T10:18:56.369Z,99904.31
2022-10-04T10:21:48.840Z,99930.47
2022-10-04T10:24:42.179Z,99938.09
2022-10-04T10:27:39.690Z,99944.75
2022-10-04T10:30:20.539Z,99913.25
2022-10-04T10:33:26.188Z,99889.50
2022-10-04T10:36:26.569Z,99891.19
2022-10-04T10:39:27.179Z,99888.19
2022-10-04T10:42:28.248Z,99891.53
2022-10-04T10:45:26.780Z,99881.75
2022-10-04T10:48:03.480Z,99863.22
2022-10-04T10:51:00.966Z,99855.81
2022-10-04T10:54:10.778Z,99853.88
2022-10-04T10:56:48.304Z,99868.16
2022-10-04T11:00:00.910Z,99882.25
2022-10-04T11:03:11.861Z,99897.41
2022-10-04T11:06:27.049Z,99895.28
2022-10-04T11:09:29.908Z,99894.16
2022-10-04T11:12:26.859Z,99900.25
2022-10-04T11:15:35.178Z,99888.91
2022-10-04T11:18:41.109Z,99893.91
2022-10-04T11:21:47.169Z,99892.84
2022-10-04T11:25:01.710Z,99882.84
2022-10-04T11:27:48.966Z,99894.31
2022-10-04T11:30:25.469Z,99898.00
2022-10-04T11:33:18.680Z,99899.41
2022-10-04T11:36:08.459Z,99894.16
2022-10-04T11:38:59.438Z,99895.63
2022-10-04T11:41:39.538Z,99911.22
2022-10-04T11:44:36.960Z,99913.03
2022-10-04T11:47:16.738Z,99923.28
2022-10-04T11:49:59.029Z,99908.34
2022-10-04T11:53:09.758Z,99908.34
2022-10-04T11:56:04.670Z,99907.28
2022-10-04T11:58:49.382Z,99902.38
2022-10-04T12:01:48.663Z,99903.25
2022-10-04T12:04:53.919Z,99885.34
2022-10-04T12:07:46.820Z,99870.53
2022-10-04T12:10:25.398Z,99864.94
2022-10-04T12:13:44.371Z,99877.94
2022-10-04T12:16:37.842Z,99891.06
2022-10-04T12:19:43.558Z,99870.19
2022-10-04T12:22:40.399Z,99866.25
2022-10-04T12:25:34.830Z,99855.50
2022-10-04T12:28:53.698Z,99883.41
2022-10-04T12:31:31.863Z,99881.28
2022-10-04T12:34:15.009Z,99883.19
2022-10-04T12:36:59.638Z,99889.25
2022-10-04T12:40:21.019Z,99888.75
2022-10-04T12:42:59.189Z,99886.53
2022-10-04T12:45:48.600Z,99892.03
2022-10-04T12:48:29.229Z,99894.50
2022-10-04T12:51:13.868Z,99909.19
2022-10-04T12:53:56.711Z,99924.09
2022-10-04T12:56:56.980Z,99927.69
2022-10-04T12:59:46.909Z,99913.75
2022-10-04T13:02:30.582Z,99905.00
2022-10-04T13:05:09.449Z,99887.59
2022-10-04T13:07:57.149Z,99884.00
2022-10-04T13:10:49.359Z,99886.19
2022-10-04T13:13:56.409Z,99889.50
2022-10-04T13:19:39.912Z,99879.25
2022-10-04T13:22:43.981Z,99882.50
2022-10-04T13:25:38.570Z,99874.84
2022-10-04T13:28:16.897Z,99882.25
2022-10-04T13:30:50.289Z,99879.88
2022-10-04T13:33:28.719Z,99873.06
2022-10-04T13:36:03.710Z,99865.28
2022-10-04T13:39:03.814Z,99841.94
2022-10-04T13:41:46.730Z,99822.03
2022-10-04T13:44:31.612Z,99817.63
2022-10-04T13:47:23.080Z,99808.78
2022-10-04T13:50:09.139Z,99811.16
2022-10-04T13:53:01.489Z,99809.34
2022-10-04T13:55:54.590Z,99806.16
2022-10-04T13:58:36.239Z,99813.19
2022-10-04T14:01:51.602Z,99816.41
2022-10-04T14:04:51.579Z,99806.97
2022-10-04T14:07:38.819Z,99808.66
2022-10-04T14:10:38.739Z,99810.44
2022-10-04T14:13:38.211Z,99818.56
2022-10-04T14:16:34.824Z,99824.66
2022-10-04T14:19:25.309Z,99826.31
2022-10-04T14:22:27.471Z,99834.78
2022-10-04T14:25:28.541Z,99831.44
2022-10-04T14:28:32.023Z,99825.75
2022-10-04T14:31:22.189Z,99823.13
2022-10-04T14:34:29.820Z,99830.00
2022-10-04T14:37:27.989Z,99833.47
2022-10-04T14:40:15.659Z,99822.28
2022-10-04T14:43:12.949Z,99812.03
2022-10-04T14:46:08.661Z,99812.88
2022-10-04T14:48:52.829Z,99799.84
2022-10-04T14:51:54.260Z,99804.84
2022-10-04T14:54:38.999Z,99807.38
2022-10-04T14:57:14.198Z,99801.41
2022-10-04T15:00:15.010Z,99792.56
2022-10-04T15:03:19.529Z,99787.06
2022-10-04T15:06:35.899Z,99778.34
2022-10-04T15:09:33.140Z,99774.19
2022-10-04T15:12:40.589Z,99772.28
2022-10-04T15:15:38.060Z,99766.56
2022-10-04T15:18:22.341Z,99769.91
2022-10-04T15:20:56.430Z,99775.88
2022-10-04T15:23:38.068Z,99770.06
2022-10-04T15:26:52.839Z,99768.13
2022-10-04T15:29:29.512Z,99764.91
2022-10-04T15:32:08.489Z,99771.13
2022-10-04T15:34:47.174Z,99771.34
2022-10-04T15:37:26.740Z,99769.34
2022-10-04T15:40:24.173Z,99760.25
2022-10-04T15:43:15.279Z,99763.59
2022-10-04T15:46:03.041Z,99763.59
2022-10-04T15:48:54.281Z,99754.31
2022-10-04T15:51:44.758Z,99757.63
2022-10-04T15:54:40.500Z,99753.19
2022-10-04T15:57:25.919Z,99747.25
2022-10-04T16:00:09.110Z,99752.50
2022-10-04T16:03:06.349Z,99741.03
2022-10-04T16:05:39.630Z,99746.53
2022-10-04T16:08:41.909Z,99742.00
2022-10-04T16:11:38.369Z,99734.13
2022-10-04T16:14:21.780Z,99729.00
2022-10-04T16:17:22.930Z,99716.50
2022-10-04T16:20:16.691Z,99713.97
2022-10-04T16:23:24.249Z,99703.25
2022-10-04T16:25:53.480Z,99706.56
2022-10-04T16:28:39.992Z,99718.66
2022-10-04T16:31:22.825Z,99722.44
2022-10-04T16:34:00.501Z,99721.03
2022-10-04T16:36:46.143Z,99725.19
2022-10-04T16:39:51.909Z,99720.66
2022-10-04T16:42:24.849Z,99710.53
2022-10-04T16:44:59.339Z,99705.53
2022-10-04T16:47:32.779Z,99714.69
2022-10-04T16:50:05.159Z,99709.72
2022-10-04T16:52:49.590Z,99712.22
2022-10-04T16:55:45.299Z,99715.78
2022-10-04T16:58:56.519Z,99720.19
2022-10-04T17:02:08.451Z,99705.09
2022-10-04T17:04:55.789Z,99707.72
2022-10-04T17:07:35.025Z,99704.25
2022-10-04T17:10:20.619Z,99696.38
2022-10-04T17:12:57.074Z,99701.88
2022-10-04T17:15:47.820Z,99689.00
2022-10-04T17:18:32.201Z,99692.75
2022-10-04T17:21:06.190Z,99693.00
2022-10-04T17:23:56.390Z,99704.06
2022-10-04T17:26:44.282Z,99692.50
2022-10-04T17:29:32.733Z,99687.75
2022-10-04T17:32:11.470Z,99702.66
2022-10-04T17:34:55.460Z,99697.03
2022-10-04T17:37:35.141Z,99702.50
2022-10-04T17:40:39.140Z,99680.38
2022-10-04T17:43:19.659Z,99674.41
2022-10-04T17:46:01.378Z,99676.22
2022-10-04T17:48:49.808Z,99678.91
2022-10-04T17:51:53.949Z,99678.91
2022-10-04T17:54:48.439Z,99672.63
2022-10-04T17:57:28.470Z,99689.19
2022-10-04T18:00:14.980Z,99672.50
2022-10-04T18:03:01.516Z,99679.56
2022-10-04T18:05:46.472Z,99665.59
2022-10-04T18:08:21.760Z,99677.03
2022-10-04T18:10:53.609Z,99666.09
2022-10-04T18:13:31.189Z,99659.44
2022-10-04T18:16:11.837Z,99655.50
2022-10-04T18:18:42.691Z,99648.75
2022-10-04T18:21:28.009Z,99642.22
2022-10-04T18:23:59.749Z,99643.78
2022-10-04T18:26:31.479Z,99629.00
2022-10-04T18:29:02.413Z,99622.78
2022-10-04T18:31:46.265Z,99623.63
2022-10-04T18:34:32.690Z,99625.16
2022-10-04T18:37:08.687Z,99614.41
2022-10-04T18:39:55.331Z,99616.78
2022-10-04T18:42:28.383Z,99618.63
2022-10-04T18:45:01.052Z,99613.81
2022-10-04T18:47:39.679Z,99603.72
2022-10-04T18:50:19.120Z,99616.25
2022-10-04T18:53:03.809Z,99615.53
2022-10-04T18:55:42.529Z,99616.59
2022-10-04T18:58:44.474Z,99612.59
2022-10-04T19:01:43.376Z,99616.84
2022-10-04T19:04:20.762Z,99629.97
2022-10-04T19:06:53.719Z,99621.41
2022-10-04T19:09:32.219Z,99624.97
2022-10-04T19:12:06.949Z,99625.81
2022-10-04T19:15:01.760Z,99625.22
2022-10-04T19:17:44.129Z,99621.06
2022-10-04T19:20:24.920Z,99614.28
2022-10-04T19:23:07.144Z,99595.22
2022-10-04T19:25:48.680Z,99584.50
2022-10-04T19:28:32.179Z,99582.03
2022-10-04T19:31:16.314Z,99577.94
2022-10-04T19:33:51.841Z,99569.19
2022-10-04T19:36:47.183Z,99561.47
2022-10-04T19:39:39.651Z,99550.31
2022-10-04T19:42:31.140Z,99549.81
2022-10-04T19:45:13.674Z,99535.88
2022-10-04T19:47:51.569Z,99537.59
2022-10-04T19:50:24.130Z,99537.94
2022-10-04T19:52:59.669Z,99540.56
2022-10-04T19:55:51.849Z,99531.38
2022-10-04T19:58:32.089Z,99522.59
2022-10-04T20:01:00.934Z,99517.22
2022-10-04T20:03:32.231Z,99515.72
2022-10-04T20:06:01.189Z,99513.41
2022-10-04T20:09:02.222Z,99503.97
2022-10-04T20:11:52.569Z,99513.16
2022-10-04T20:15:14.942Z,99505.63
2022-10-04T20:17:44.460Z,99505.78
2022-10-04T20:20:17.424Z,99505.78
2022-10-04T20:22:58.851Z,99506.72
2022-10-04T20:26:02.520Z,99506.72
2022-10-04T20:28:44.089Z,99494.28
2022-10-04T20:31:28.649Z,99499.09
2022-10-04T20:34:18.059Z,99492.16
2022-10-04T20:36:55.801Z,99494.88
2022-10-04T20:40:00.644Z,99500.13
2022-10-04T20:42:35.359Z,99499.56
2022-10-04T20:45:28.132Z,99491.50
2022-10-04T20:47:58.474Z,99488.81
2022-10-04T20:50:32.938Z,99489.41
2022-10-04T20:53:04.624Z,99484.22
2022-10-04T20:55:35.738Z,99490.72
2022-10-04T20:58:23.652Z,99488.16
2022-10-04T21:00:55.276Z,99481.16
2022-10-04T21:03:25.111Z,99481.00
2022-10-04T21:06:05.850Z,99481.97
2022-10-04T21:08:35.866Z,99483.78
2022-10-04T21:11:24.906Z,99481.44
2022-10-04T21:13:58.421Z,99481.72
2022-10-04T21:16:43.397Z,99481.03
2022-10-04T21:19:32.573Z,99479.50
2022-10-04T21:22:03.499Z,99468.72
2022-10-04T21:24:39.290Z,99462.81
2022-10-04T21:27:13.169Z,99463.47
2022-10-04T21:29:46.080Z,99457.97
2022-10-04T21:32:14.750Z,99445.56
2022-10-04T21:34:58.845Z,99448.19
2022-10-04T21:37:27.649Z,99435.31
2022-10-04T21:39:56.378Z,99433.66
2022-10-04T21:42:25.380Z,99439.59
2022-10-04T21:44:55.656Z,99427.28
2022-10-04T21:47:27.495Z,99429.81
2022-10-04T21:49:56.672Z,99411.97
2022-10-04T21:52:25.790Z,99405.63
2022-10-04T21:54:55.079Z,99405.47
2022-10-04T21:57:24.277Z,99403.00
2022-10-04T21:59:53.064Z,99395.81
2022-10-04T22:02:25.240Z,99400.09
2022-10-04T22:04:53.919Z,99401.06
2022-10-04T22:07:22.557Z,99398.03
2022-10-04T22:09:52.559Z,99395.84
2022-10-04T22:12:21.239Z,99408.56
2022-10-04T22:14:49.959Z,99408.28
2022-10-04T22:17:18.999Z,99399.03
2022-10-04T22:19:50.105Z,99394.31
2022-10-04T22:22:19.479Z,99393.22
2022-10-04T22:24:48.474Z,99394.31
2022-10-04T22:27:21.744Z,99388.25
2022-10-04T22:29:51.209Z,99379.53
2022-10-04T22:32:24.779Z,99373.59
2022-10-04T22:35:02.169Z,99372.06
2022-10-04T22:37:31.659Z,99373.59
2022-10-04T22:40:00.542Z,99368.88
2022-10-04T22:42:34.769Z,99368.88
2022-10-04T22:45:11.064Z,99347.31
2022-10-04T22:47:41.922Z,99345.69
2022-10-04T22:50:28.045Z,99343.06
2022-10-04T22:53:05.097Z,99348.31
2022-10-04T22:55:33.779Z,99343.72
2022-10-04T22:58:09.929Z,99341.78
2022-10-04T23:00:39.819Z,99343.72
2022-10-04T23:03:27.932Z,99332.56
2022-10-04T23:05:58.599Z,99337.53
2022-10-04T23:08:27.410Z,99329.78
2022-10-04T23:11:23.789Z,99327.84
2022-10-04T23:17:00.120Z,99323.25
2022-10-04T23:19:30.639Z,99311.25
2022-10-04T23:22:13.309Z,99304.75
2022-10-04T23:24:44.070Z,99310.97
2022-10-04T23:27:21.500Z,99317.59
2022-10-04T23:29:56.999Z,99311.38
2022-10-04T23:32:33.353Z,99318.16
2022-10-04T23:35:08.092Z,99312.19
2022-10-04T23:38:08.301Z,99300.19
2022-10-04T23:40:49.211Z,99294.94
2022-10-04T23:43:38.430Z,99294.25
2022-10-04T23:46:20.221Z,99293.44
2022-10-04T23:48:51.681Z,99286.91
2022-10-04T23:51:21.500Z,99273.09
2022-10-04T23:53:56.550Z,99282.47
2022-10-04T23:56:30.039Z,99294.66
2022-10-04T23:59:09.260Z,99289.13
